Wales, WI (53183)

7:39 AM CDT on July 28, 2016 (GMT -0500)
Luterbach Court | | Change Station

Elev 942 ft 43.01 °N, 88.40 °W | Updated 15 seconds ago

Mostly Cloudy
Mostly Cloudy
69.8 °F
Feels Like 69.8 °F
N
6.7
Wind Variable Wind from NE
Gusts 7.4 mph

Today
High -- | Low -- °F
--% Chance of Precip.
Yesterday
High -- | Low -- °F
Precip. -- in
Pressure 29.95 in
Visibility 10.0 miles
Clouds Scattered Clouds 500 ft
Mostly Cloudy 3000 ft
Dew Point 68 °F
Humidity 92%
Rainfall 0.12 in
Snow Depth Not available.
5:40 AM 8:18 PM
Waning Crescent, 32% visible
METAR KUES 281145Z 10008KT 10SM SCT005 BKN030 19/18 A2995
Pressure 29.95 in
Visibility 10.0 miles
Clouds Scattered Clouds 500 ft
Mostly Cloudy 3000 ft
Dew Point 68 °F
Humidity 92%
Rainfall 0.12 in
Snow Depth Not available.
5:40 AM 8:18 PM
Waning Crescent, 32% visible
METAR KUES 281145Z 10008KT 10SM SCT005 BKN030 19/18 A2995

10-Day Weather Forecast

Almanac

Astronomy

Jul. 28, 2016 Rise Set
Actual Time
Civil Twilight
Nautical Twilight
Astronomical Twilight
Moon
Length of Visible Light
Length of Day
Tomorrow will be .
, % of the Moon is Illuminated

Today's Extremes

State Highs State Lows

Community

WunderPhotos

Upload Photos

1,928,099 photos uploaded!

WunderBlog® & News

Nearby

Air Quality

  Air Quality AQ Index Pollutant
Not available.

Snow Depth

Station Depth Elevation

Earthquake Activity

City Distance Mag. Time & Date
Minimum magnitude displayed is 2.5.

Coastal Water Temperatures

Place Temperature

Stations

Nearby Weather Stations

Station Location Temp. Windchill Dew Point Humidity Wind Precip. Elev Updated Type
                   

Watches & Warnings

There are currently no watches in effect.